createdAt,value
2023-07-29T00:00:41.854Z,100.00
2023-07-29T00:03:44.290Z,100.00
2023-07-29T00:06:46.772Z,100.00
2023-07-29T00:09:49.223Z,100.00
2023-07-29T00:12:51.612Z,100.00
2023-07-29T00:15:56.706Z,100.00
2023-07-29T00:18:59.179Z,100.00
2023-07-29T00:22:01.647Z,100.00
2023-07-29T00:25:04.253Z,100.00
2023-07-29T00:28:06.838Z,100.00
2023-07-29T00:31:09.360Z,100.00
2023-07-29T00:34:11.846Z,100.00
2023-07-29T00:37:14.283Z,100.00
2023-07-29T00:40:21.946Z,100.00
2023-07-29T00:43:24.393Z,100.00
2023-07-29T00:46:29.885Z,100.00
2023-07-29T00:49:33.684Z,100.00
2023-07-29T00:52:36.221Z,100.00
2023-07-29T00:55:38.748Z,100.00
2023-07-29T00:58:41.239Z,100.00
2023-07-29T01:01:43.982Z,100.00
2023-07-29T01:04:46.436Z,100.00
2023-07-29T01:07:49.493Z,100.00
2023-07-29T01:11:19.941Z,100.00
2023-07-29T01:14:42.645Z,100.00
2023-07-29T01:17:55.581Z,100.00
2023-07-29T01:21:05.244Z,100.00
2023-07-29T01:24:07.694Z,100.00
2023-07-29T01:27:10.122Z,100.00
2023-07-29T01:30:15.037Z,100.00
2023-07-29T01:33:27.894Z,100.00
2023-07-29T01:36:32.954Z,100.00
2023-07-29T01:39:39.031Z,100.00
2023-07-29T01:42:41.612Z,100.00
2023-07-29T01:45:44.299Z,100.00
2023-07-29T01:48:46.813Z,100.00
2023-07-29T01:51:50.406Z,100.00
2023-07-29T01:54:53.438Z,100.00
2023-07-29T01:57:55.908Z,100.00
2023-07-29T02:00:59.712Z,100.00
2023-07-29T02:04:02.197Z,100.00
2023-07-29T02:07:04.961Z,100.00
2023-07-29T02:10:08.808Z,100.00
2023-07-29T02:13:11.799Z,100.00
2023-07-29T02:16:14.238Z,100.00
2023-07-29T02:19:17.092Z,100.00
2023-07-29T02:22:19.644Z,100.00
2023-07-29T02:25:22.088Z,100.00
2023-07-29T02:28:24.680Z,100.00
2023-07-29T02:31:27.324Z,100.00
2023-07-29T02:34:30.272Z,100.00
2023-07-29T02:37:32.876Z,100.00
2023-07-29T02:40:35.393Z,100.00
2023-07-29T02:43:37.825Z,100.00
2023-07-29T02:46:40.617Z,100.00
2023-07-29T02:49:43.330Z,100.00
2023-07-29T02:52:46.741Z,100.00
2023-07-29T02:55:50.403Z,100.00
2023-07-29T02:58:53.166Z,100.00
2023-07-29T03:01:55.710Z,100.00
2023-07-29T03:04:58.173Z,100.00
2023-07-29T03:08:00.847Z,100.00
2023-07-29T03:11:14.520Z,100.00
2023-07-29T03:14:16.944Z,100.00
2023-07-29T03:17:19.655Z,100.00
2023-07-29T03:20:22.272Z,100.00
2023-07-29T03:23:24.783Z,100.00
2023-07-29T03:26:27.234Z,100.00
2023-07-29T03:29:29.609Z,100.00
2023-07-29T03:32:32.124Z,100.00
2023-07-29T03:35:34.553Z,100.00
2023-07-29T03:38:41.162Z,100.00
2023-07-29T03:41:44.060Z,100.00
2023-07-29T03:44:46.459Z,100.00
2023-07-29T03:47:48.893Z,100.00
2023-07-29T03:50:51.516Z,100.00
2023-07-29T03:53:53.960Z,100.00
2023-07-29T03:56:56.503Z,100.00
2023-07-29T03:59:58.957Z,100.00
2023-07-29T04:03:01.478Z,100.00
2023-07-29T04:06:04.152Z,100.00
2023-07-29T04:09:06.700Z,100.00
2023-07-29T04:12:09.346Z,100.00
2023-07-29T04:15:11.807Z,100.00
2023-07-29T04:18:14.271Z,100.00
2023-07-29T04:21:17.626Z,100.00
2023-07-29T04:24:21.393Z,100.00
2023-07-29T04:27:24.000Z,100.00
2023-07-29T04:30:26.601Z,100.00
2023-07-29T04:33:31.100Z,100.00
2023-07-29T04:36:33.750Z,100.00
2023-07-29T04:39:36.676Z,100.00
2023-07-29T04:42:39.136Z,100.00
2023-07-29T04:45:45.248Z,100.00
2023-07-29T04:48:47.694Z,100.00
2023-07-29T04:51:50.108Z,100.00
2023-07-29T04:54:52.555Z,100.00
2023-07-29T04:57:54.949Z,100.00
2023-07-29T05:00:57.426Z,98.79
2023-07-29T05:03:59.885Z,54.77
2023-07-29T05:07:02.626Z,81.60
2023-07-29T05:10:05.943Z,68.10
2023-07-29T05:13:11.700Z,84.96
2023-07-29T05:16:14.878Z,92.44
2023-07-29T05:19:17.307Z,93.57
2023-07-29T05:22:19.713Z,98.12
2023-07-29T05:25:22.301Z,100.00
2023-07-29T05:28:24.800Z,98.78
2023-07-29T05:31:27.368Z,96.39
2023-07-29T05:34:30.094Z,95.78
2023-07-29T05:37:32.527Z,91.89
2023-07-29T05:40:35.178Z,54.14
2023-07-29T05:43:38.504Z,49.99
2023-07-29T05:46:41.157Z,62.40
2023-07-29T05:49:43.843Z,68.98
2023-07-29T05:52:46.272Z,67.75
2023-07-29T05:55:48.740Z,70.19
2023-07-29T05:58:51.132Z,58.38
2023-07-29T06:01:53.887Z,80.46
2023-07-29T06:04:57.172Z,80.50
2023-07-29T06:08:00.034Z,59.85
2023-07-29T06:11:02.726Z,61.38
2023-07-29T06:14:05.172Z,51.04
2023-07-29T06:17:08.343Z,51.88
2023-07-29T06:20:11.387Z,47.79
2023-07-29T06:23:13.884Z,39.14
2023-07-29T06:26:16.354Z,35.06
2023-07-29T06:29:18.763Z,35.26
2023-07-29T06:32:21.176Z,37.49
2023-07-29T06:35:23.611Z,32.75
2023-07-29T06:38:26.075Z,34.26
2023-07-29T06:41:28.524Z,31.73
2023-07-29T06:44:30.951Z,32.25
2023-07-29T06:47:33.470Z,44.30
2023-07-29T06:50:35.956Z,48.13
2023-07-29T06:53:38.412Z,48.40
2023-07-29T06:56:40.862Z,40.48
2023-07-29T06:59:43.315Z,49.26
2023-07-29T07:02:45.805Z,53.24
2023-07-29T07:05:48.252Z,54.77
2023-07-29T07:08:51.016Z,62.26
2023-07-29T07:11:53.734Z,62.11
2023-07-29T07:14:56.297Z,56.36
2023-07-29T07:17:58.863Z,51.43
2023-07-29T07:21:01.339Z,42.26
2023-07-29T07:24:03.938Z,41.67
2023-07-29T07:27:06.614Z,32.41
2023-07-29T07:30:09.504Z,30.20
2023-07-29T07:33:11.960Z,33.19
2023-07-29T07:36:14.380Z,39.04
2023-07-29T07:39:16.890Z,34.67
2023-07-29T07:42:19.309Z,35.30
2023-07-29T07:45:21.831Z,35.42
2023-07-29T07:48:24.299Z,32.65
2023-07-29T07:51:26.722Z,29.40
2023-07-29T07:54:29.116Z,29.35
2023-07-29T07:57:31.493Z,28.07
2023-07-29T08:00:33.867Z,30.14
2023-07-29T08:03:37.153Z,28.89
2023-07-29T08:06:39.715Z,32.04
2023-07-29T08:09:42.310Z,27.68
2023-07-29T08:12:44.719Z,29.29
2023-07-29T08:15:49.055Z,31.89
2023-07-29T08:18:51.492Z,36.36
2023-07-29T08:21:54.115Z,34.02
2023-07-29T08:24:56.515Z,38.21
2023-07-29T08:27:59.059Z,34.92
2023-07-29T08:31:01.621Z,32.11
2023-07-29T08:34:04.125Z,31.01
2023-07-29T08:37:06.936Z,27.57
2023-07-29T08:40:10.074Z,25.56
2023-07-29T08:43:13.504Z,25.82
2023-07-29T08:46:17.803Z,25.82
2023-07-29T08:49:20.977Z,27.88
2023-07-29T08:52:24.179Z,26.81
2023-07-29T08:55:26.798Z,26.30
2023-07-29T08:58:29.886Z,26.18
2023-07-29T09:01:32.668Z,28.13
2023-07-29T09:04:35.200Z,26.11
2023-07-29T09:07:39.321Z,25.32
2023-07-29T09:10:41.964Z,27.67
2023-07-29T09:13:44.875Z,26.66
2023-07-29T09:16:47.495Z,27.81
2023-07-29T09:19:51.533Z,27.66
2023-07-29T09:23:01.169Z,27.17
2023-07-29T09:26:04.750Z,27.17
2023-07-29T09:29:07.235Z,29.24
2023-07-29T09:32:21.051Z,31.19
2023-07-29T09:35:23.872Z,29.25
2023-07-29T09:38:29.471Z,29.62
2023-07-29T09:41:34.471Z,29.87
2023-07-29T09:44:39.605Z,28.94
2023-07-29T09:47:43.812Z,29.69
2023-07-29T09:50:48.445Z,30.13
2023-07-29T09:53:53.285Z,36.20
2023-07-29T09:56:55.748Z,41.11
2023-07-29T09:59:58.485Z,38.08
2023-07-29T10:03:01.757Z,31.67
2023-07-29T10:06:08.507Z,31.84
2023-07-29T10:09:13.157Z,28.82
2023-07-29T10:12:17.646Z,28.68
2023-07-29T10:15:22.041Z,31.58
2023-07-29T10:18:25.653Z,33.00
2023-07-29T10:21:30.255Z,33.50
2023-07-29T10:24:34.371Z,39.08
2023-07-29T10:27:44.433Z,36.20
2023-07-29T10:30:47.691Z,42.90
2023-07-29T10:33:51.150Z,44.95
2023-07-29T10:36:54.120Z,44.53
2023-07-29T10:39:56.821Z,43.63
2023-07-29T10:43:04.476Z,42.72
2023-07-29T10:46:23.907Z,40.07
2023-07-29T10:49:32.326Z,40.11
2023-07-29T10:52:37.682Z,39.33
2023-07-29T10:55:40.206Z,39.71
2023-07-29T10:58:44.433Z,39.48
2023-07-29T11:01:59.156Z,38.93
2023-07-29T11:05:07.480Z,40.84
2023-07-29T11:08:19.566Z,44.36
2023-07-29T11:11:21.990Z,43.24
2023-07-29T11:14:25.661Z,41.78
2023-07-29T11:17:28.524Z,42.34
2023-07-29T11:20:34.159Z,43.10
2023-07-29T11:23:38.226Z,42.87
2023-07-29T11:26:47.928Z,43.75
2023-07-29T11:29:50.405Z,41.12
2023-07-29T11:32:54.788Z,39.54
2023-07-29T11:35:57.318Z,39.35
2023-07-29T11:38:59.752Z,42.91
2023-07-29T11:42:02.147Z,42.62
2023-07-29T11:45:07.595Z,43.41
2023-07-29T11:48:10.242Z,39.52
2023-07-29T11:51:14.360Z,40.96
2023-07-29T11:54:17.222Z,42.45
2023-07-29T11:57:20.005Z,43.56
2023-07-29T12:00:22.770Z,43.13
2023-07-29T12:03:26.929Z,42.76
2023-07-29T12:06:32.190Z,43.93
2023-07-29T12:09:38.421Z,43.90
2023-07-29T12:12:50.959Z,45.29
2023-07-29T12:15:54.915Z,46.15
2023-07-29T12:18:57.628Z,46.59
2023-07-29T12:22:00.343Z,46.17
2023-07-29T12:25:04.360Z,45.43
2023-07-29T12:28:08.052Z,46.01
2023-07-29T12:31:10.959Z,46.68
2023-07-29T12:34:21.157Z,47.12
2023-07-29T12:37:32.810Z,46.64
2023-07-29T12:40:39.504Z,47.62
2023-07-29T12:43:41.958Z,47.33
2023-07-29T12:46:44.911Z,58.50
2023-07-29T12:49:47.412Z,64.20
2023-07-29T12:52:49.852Z,59.48
2023-07-29T12:55:52.284Z,53.84
2023-07-29T12:58:54.687Z,50.82
2023-07-29T13:01:57.166Z,50.10
2023-07-29T13:04:59.558Z,52.74
2023-07-29T13:08:02.049Z,48.58
2023-07-29T13:11:05.486Z,44.39
2023-07-29T13:14:07.989Z,44.81
2023-07-29T13:17:10.417Z,44.95
2023-07-29T13:20:12.888Z,43.81
2023-07-29T13:23:16.745Z,44.17
2023-07-29T13:26:19.176Z,44.53
2023-07-29T13:29:21.625Z,43.48
2023-07-29T13:32:24.058Z,41.50
2023-07-29T13:35:26.785Z,40.58
2023-07-29T13:38:29.754Z,41.24
2023-07-29T13:41:32.697Z,41.10
2023-07-29T13:44:35.078Z,40.93
2023-07-29T13:47:38.132Z,40.46
2023-07-29T13:50:40.698Z,42.80
2023-07-29T13:53:43.134Z,42.33
2023-07-29T13:56:45.552Z,42.51
2023-07-29T13:59:48.152Z,41.33
2023-07-29T14:02:50.623Z,42.76
2023-07-29T14:05:53.182Z,43.29
2023-07-29T14:08:55.609Z,44.08
2023-07-29T14:11:58.040Z,44.30
2023-07-29T14:15:00.541Z,43.50
2023-07-29T14:18:03.820Z,42.90
2023-07-29T14:21:06.288Z,45.35
2023-07-29T14:24:08.725Z,55.02
2023-07-29T14:27:11.126Z,55.79
2023-07-29T14:30:13.530Z,55.53
2023-07-29T14:33:16.043Z,53.92
2023-07-29T14:36:18.466Z,56.20
2023-07-29T14:39:20.870Z,55.46
2023-07-29T14:42:23.518Z,57.06
2023-07-29T14:45:26.179Z,56.72
2023-07-29T14:48:28.733Z,53.72
2023-07-29T14:51:31.276Z,54.09
2023-07-29T14:54:33.683Z,54.60
2023-07-29T14:57:36.194Z,57.66
2023-07-29T15:00:38.811Z,58.14
2023-07-29T15:03:41.299Z,60.28
2023-07-29T15:06:44.381Z,60.36
2023-07-29T15:09:47.475Z,60.72
2023-07-29T15:12:49.896Z,61.50
2023-07-29T15:15:52.352Z,59.98
2023-07-29T15:18:54.848Z,59.80
2023-07-29T15:21:57.280Z,59.39
2023-07-29T15:25:01.354Z,60.46
2023-07-29T15:28:03.943Z,57.14
2023-07-29T15:31:07.068Z,58.03
2023-07-29T15:34:09.557Z,57.99
2023-07-29T15:37:11.992Z,57.01
2023-07-29T15:40:14.722Z,56.24
2023-07-29T15:43:17.131Z,58.66
2023-07-29T15:46:19.670Z,59.20
2023-07-29T15:49:22.260Z,57.79
2023-07-29T15:52:24.904Z,57.39
2023-07-29T15:55:27.396Z,56.93
2023-07-29T15:58:29.861Z,56.44
2023-07-29T16:01:32.422Z,57.95
2023-07-29T16:04:34.900Z,58.28
2023-07-29T16:07:37.308Z,59.48
2023-07-29T16:10:39.701Z,61.30
2023-07-29T16:13:42.120Z,61.08
2023-07-29T16:16:45.461Z,60.79
2023-07-29T16:19:58.918Z,60.20
2023-07-29T16:23:01.324Z,60.55
2023-07-29T16:26:03.758Z,59.87
2023-07-29T16:29:06.621Z,60.86
2023-07-29T16:32:09.516Z,60.88
2023-07-29T16:35:11.985Z,60.19
2023-07-29T16:38:14.388Z,59.05
2023-07-29T16:41:46.230Z,58.46
2023-07-29T16:44:41.654Z,57.65
2023-07-29T16:47:44.210Z,58.63
2023-07-29T16:50:46.691Z,57.92
2023-07-29T16:53:49.402Z,56.02
2023-07-29T16:56:52.267Z,55.67
2023-07-29T16:59:54.758Z,64.48
2023-07-29T17:02:57.313Z,65.99
2023-07-29T17:05:59.827Z,68.45
2023-07-29T17:09:02.234Z,69.26
2023-07-29T17:12:05.221Z,71.67
2023-07-29T17:15:09.662Z,72.84
2023-07-29T17:18:12.197Z,73.30
2023-07-29T17:21:14.688Z,75.27
2023-07-29T17:24:17.487Z,75.89
2023-07-29T17:27:20.059Z,75.52
2023-07-29T17:30:22.454Z,76.16
2023-07-29T17:33:25.999Z,76.52
2023-07-29T17:36:28.503Z,78.49
2023-07-29T17:39:31.011Z,81.26
2023-07-29T17:42:33.520Z,82.59
2023-07-29T17:45:35.911Z,84.28
2023-07-29T17:48:38.487Z,85.30
2023-07-29T17:51:41.060Z,85.58
2023-07-29T17:54:43.535Z,87.63
2023-07-29T17:57:45.994Z,87.19
2023-07-29T18:00:50.082Z,87.55
2023-07-29T18:03:52.498Z,88.62
2023-07-29T18:06:56.721Z,89.46
2023-07-29T18:10:00.379Z,90.61
2023-07-29T18:13:02.866Z,91.82
2023-07-29T18:16:05.280Z,93.19
2023-07-29T18:19:07.823Z,93.35
2023-07-29T18:22:10.324Z,93.79
2023-07-29T18:25:12.758Z,93.65
2023-07-29T18:28:15.230Z,93.60
2023-07-29T18:31:17.727Z,94.85
2023-07-29T18:34:20.379Z,95.58
2023-07-29T18:37:22.906Z,95.57
2023-07-29T18:40:27.467Z,95.89
2023-07-29T18:43:29.922Z,96.14
2023-07-29T18:46:32.836Z,95.97
2023-07-29T18:49:35.324Z,96.38
2023-07-29T18:52:37.849Z,96.87
2023-07-29T18:55:41.213Z,97.20
2023-07-29T18:58:43.748Z,97.61
2023-07-29T19:01:46.221Z,100.00
2023-07-29T19:04:49.427Z,100.00
2023-07-29T19:07:51.802Z,100.00
2023-07-29T19:10:54.208Z,100.00
2023-07-29T19:13:56.642Z,100.00
2023-07-29T19:16:59.119Z,100.00
2023-07-29T19:20:07.012Z,100.00
2023-07-29T19:23:09.564Z,99.43
2023-07-29T19:26:12.038Z,98.13
2023-07-29T19:29:15.610Z,97.35
2023-07-29T19:32:19.396Z,97.61
2023-07-29T19:35:22.020Z,98.86
2023-07-29T19:38:24.842Z,99.35
2023-07-29T19:41:29.451Z,100.00
2023-07-29T19:44:34.354Z,99.06
2023-07-29T19:47:36.974Z,98.36
2023-07-29T19:50:39.409Z,97.24
2023-07-29T19:53:41.844Z,97.02
2023-07-29T19:56:44.275Z,97.53
2023-07-29T19:59:49.051Z,97.43
2023-07-29T20:02:51.815Z,99.98
2023-07-29T20:05:54.376Z,100.00
2023-07-29T20:08:56.852Z,100.00
2023-07-29T20:11:59.238Z,100.00
2023-07-29T20:15:01.917Z,100.00
2023-07-29T20:18:04.475Z,100.00
2023-07-29T20:21:06.902Z,100.00
2023-07-29T20:24:09.418Z,100.00
2023-07-29T20:27:11.873Z,100.00
2023-07-29T20:30:14.469Z,100.00
2023-07-29T20:33:16.848Z,100.00
2023-07-29T20:36:19.263Z,100.00
2023-07-29T20:39:21.770Z,100.00
2023-07-29T20:42:24.205Z,100.00
2023-07-29T20:45:26.678Z,100.00
2023-07-29T20:48:29.535Z,100.00
2023-07-29T20:51:32.013Z,100.00
2023-07-29T20:54:34.436Z,100.00
2023-07-29T20:57:36.870Z,100.00
2023-07-29T21:00:39.358Z,100.00
2023-07-29T21:03:41.845Z,100.00
2023-07-29T21:06:44.265Z,100.00
2023-07-29T21:09:46.662Z,100.00
2023-07-29T21:12:49.115Z,100.00
2023-07-29T21:15:51.985Z,100.00
2023-07-29T21:18:54.563Z,100.00
2023-07-29T21:21:56.991Z,100.00
2023-07-29T21:24:59.467Z,100.00
2023-07-29T21:28:01.933Z,100.00
2023-07-29T21:31:04.572Z,100.00
2023-07-29T21:34:07.064Z,100.00
2023-07-29T21:37:11.564Z,100.00
2023-07-29T21:40:18.040Z,100.00
2023-07-29T21:43:20.502Z,100.00
2023-07-29T21:46:23.049Z,100.00
2023-07-29T21:49:25.547Z,100.00
2023-07-29T21:52:29.441Z,100.00
2023-07-29T21:55:31.907Z,100.00
2023-07-29T21:58:34.342Z,100.00
2023-07-29T22:01:36.969Z,100.00
2023-07-29T22:04:39.742Z,100.00
2023-07-29T22:07:42.251Z,100.00
2023-07-29T22:10:44.730Z,100.00
2023-07-29T22:13:47.241Z,100.00
2023-07-29T22:16:49.741Z,100.00
2023-07-29T22:19:52.291Z,100.00
2023-07-29T22:22:54.723Z,100.00
2023-07-29T22:26:01.288Z,100.00
2023-07-29T22:29:03.887Z,100.00
2023-07-29T22:32:07.190Z,100.00
2023-07-29T22:35:09.718Z,100.00
2023-07-29T22:38:12.212Z,100.00
2023-07-29T22:41:14.636Z,100.00
2023-07-29T22:44:17.113Z,100.00
2023-07-29T22:47:19.549Z,100.00
2023-07-29T22:50:22.160Z,100.00
2023-07-29T22:53:25.114Z,100.00
2023-07-29T22:56:27.511Z,100.00
2023-07-29T22:59:29.994Z,100.00
2023-07-29T23:02:32.516Z,100.00
2023-07-29T23:05:37.172Z,100.00
2023-07-29T23:08:39.676Z,100.00
2023-07-29T23:11:42.066Z,100.00
2023-07-29T23:14:44.879Z,100.00
2023-07-29T23:17:47.399Z,100.00
2023-07-29T23:20:53.165Z,100.00
2023-07-29T23:23:55.728Z,100.00
2023-07-29T23:26:58.221Z,100.00
2023-07-29T23:30:00.650Z,100.00
2023-07-29T23:33:03.104Z,100.00
2023-07-29T23:36:05.566Z,100.00
2023-07-29T23:39:07.949Z,100.00
2023-07-29T23:42:10.369Z,100.00
2023-07-29T23:45:12.840Z,100.00
2023-07-29T23:48:15.253Z,100.00
2023-07-29T23:51:17.712Z,100.00
2023-07-29T23:54:20.135Z,100.00
2023-07-29T23:57:22.560Z,100.00
